Erzurum, Turkey

1:16 AM EEST on April 28, 2015 (GMT +0300)
Erzurum | | Change Station
CLOSE
Current Station
Airport
Location: Erzurum,
Elevation: 5768 ft
Nearby Weather Stations

Elev 5768 ft 39.96 °N, 41.17 °E | Updated 26 minutes ago

Light Rain Showers
Light Showers Rain
41 °F
Feels Like 35 °F
N
9
Wind Variable Wind from West

Today
High -- | Low -- °F
--% Chance of Precip.
Yesterday
High -- | Low -- °F
Precip. -- in
5:20 AM 7:06 PM
Waxing Gibbous, 68% visible
Pressure 30.18 in
Visibility 6.2 miles
Clouds Mostly Cloudy 2500 ft
Mostly Cloudy 7000 ft
Windchill 35 °F
Dew Point 39 °F
Humidity 93%
Rainfall 0.00 in
Snow Depth Not available.
UV 0 out of 12
Pollen Not available.
Air Quality Not available.
Flu Activity Not available.
METAR LTCE 272150Z 26008KT 9999 -SHRA BKN025 BKN070 05/04 Q1022 NOSIG

More Conditions Fewer Conditions

Pressure 30.18 in
Visibility 6.2 miles
Clouds Mostly Cloudy 2500 ft
Mostly Cloudy 7000 ft
Windchill 35 °F
Dew Point 39 °F
Humidity 93%
Rainfall 0.00 in
Snow Depth Not available.
UV 0 out of 12
Pollen Not available.
Air Quality Not available.
Flu Activity Not available.
METAR LTCE 272150Z 26008KT 9999 -SHRA BKN025 BKN070 05/04 Q1022 NOSIG

More Conditions Fewer Conditions

10-Day Weather Forecast

Almanac

Astronomy

Apr. 28, 2015 Rise Set
Actual Time
Civil Twilight
Nautical Twilight
Astronomical Twilight
Moon
Length of Visible Light
Length of Day
Tomorrow will be .
, % of the Moon is Illuminated

Today's Extremes

Country Highs Country Lows

Community

WunderPhotos

Upload Photos

1,817,442 photos uploaded!

WunderBlogs® & News

Nearby

Air Quality

  Air Quality AQ Index Pollutant
Not available.

Snow Depth

Station Depth Elevation

Earthquake Activity

City Distance Mag. Time & Date
Minimum magnitude displayed is 2.5.

Coastal Water Temperatures

Place Temperature

Stations

Nearby Weather Stations

Station Location Temp. Windchill Dew Point Humidity Wind Precip. Elev Updated Type